Time;durP1;ratioP1;P1;durP2;ratioP2;P2;SDS_P1;SDS_P2;PMS_P1;PMS_P2;Temp;Humidity;BMP_temperature;BMP_pressure;BME280_temperature;BME280_humidity;BME280_pressure;Samples;Min_cycle;Max_cycle;Signal;HPM_P1;HPM_P2
2023/06/15 00:02:03;;;;;;;1.43;1.00;;;19.10;81.20;;;;;;4991637;28;20497;-84
2023/06/15 00:04:30;;;;;;;1.40;0.90;;;19.10;81.50;;;;;;4996625;28;20485;-84
2023/06/15 00:06:56;;;;;;;1.50;0.93;;;19.10;81.90;;;;;;4979389;28;20489;-84
2023/06/15 00:09:25;;;;;;;1.47;0.90;;;19.00;81.30;;;;;;4990584;28;20462;-84
2023/06/15 00:11:51;;;;;;;1.40;0.90;;;19.00;80.90;;;;;;4971466;28;20477;-83
2023/06/15 00:14:18;;;;;;;1.50;0.90;;;19.00;81.40;;;;;;4983396;28;20458;-83
2023/06/15 00:16:45;;;;;;;1.47;0.90;;;19.00;81.80;;;;;;4972551;28;20492;-84
2023/06/15 00:19:12;;;;;;;1.47;0.90;;;19.00;81.60;;;;;;4984379;28;20884;-84
2023/06/15 00:21:41;;;;;;;1.47;0.90;;;19.00;82.20;;;;;;4970908;28;20488;-85
2023/06/15 00:24:09;;;;;;;1.50;0.93;;;18.90;81.90;;;;;;4978444;28;20510;-84
2023/06/15 00:26:37;;;;;;;1.43;0.90;;;18.90;81.70;;;;;;4967058;28;20539;-84
2023/06/15 00:29:04;;;;;;;1.43;0.90;;;18.90;82.00;;;;;;4980468;28;21035;-84
2023/06/15 00:31:31;;;;;;;1.40;0.90;;;18.80;81.60;;;;;;4972677;28;20587;-84
2023/06/15 00:33:58;;;;;;;1.43;0.90;;;18.80;81.90;;;;;;4983791;28;20488;-84
2023/06/15 00:36:24;;;;;;;1.47;0.90;;;18.80;82.70;;;;;;4966240;28;20488;-84
2023/06/15 00:38:51;;;;;;;1.47;0.90;;;18.80;82.20;;;;;;4979571;28;20649;-83
2023/06/15 00:41:18;;;;;;;1.47;0.90;;;18.70;82.20;;;;;;4965784;28;20476;-84
2023/06/15 00:43:46;;;;;;;1.47;0.90;;;18.70;82.90;;;;;;4982763;28;20468;-84
2023/06/15 00:46:14;;;;;;;1.40;0.90;;;18.70;83.00;;;;;;4967144;28;20484;-84
2023/06/15 00:48:41;;;;;;;1.47;1.00;;;18.70;82.50;;;;;;4984671;28;20502;-84
2023/06/15 00:51:08;;;;;;;1.43;0.90;;;18.70;83.50;;;;;;4964659;28;20476;-83
2023/06/15 00:53:37;;;;;;;1.50;1.00;;;18.60;83.30;;;;;;4982199;28;20473;-84
2023/06/15 00:56:05;;;;;;;1.47;1.00;;;18.60;82.70;;;;;;4962270;28;20533;-83
2023/06/15 00:58:33;;;;;;;1.43;0.90;;;18.50;83.30;;;;;;4982890;28;20473;-84
2023/06/15 01:01:03;;;;;;;1.47;0.90;;;18.50;83.80;;;;;;4962263;28;20466;-83
2023/06/15 01:03:30;;;;;;;1.50;1.00;;;18.40;84.30;;;;;;4985501;28;20468;-84
2023/06/15 01:05:58;;;;;;;1.43;0.90;;;18.40;83.90;;;;;;4966266;28;20579;-84
2023/06/15 01:08:27;;;;;;;1.50;0.90;;;18.40;84.40;;;;;;4985679;28;20565;-83
2023/06/15 01:10:56;;;;;;;1.47;0.90;;;18.40;85.10;;;;;;4964681;28;20592;-84
2023/06/15 01:13:23;;;;;;;1.47;0.90;;;18.30;84.40;;;;;;4983296;28;20874;-83
2023/06/15 01:15:53;;;;;;;1.43;0.90;;;18.30;84.40;;;;;;4961523;28;20590;-83
2023/06/15 01:18:23;;;;;;;1.43;0.90;;;18.30;84.70;;;;;;4985336;28;20458;-85
2023/06/15 01:20:53;;;;;;;1.40;0.90;;;18.20;85.10;;;;;;4963052;28;20489;-84
2023/06/15 01:23:33;;;;;;;1.50;1.00;;;18.20;85.00;;;;;;4983306;28;20494;-85
2023/06/15 01:26:07;;;;;;;1.43;0.97;;;18.20;85.30;;;;;;4965876;28;20875;-84
2023/06/15 01:28:35;;;;;;;1.43;1.00;;;18.20;84.90;;;;;;4991369;28;20468;-83
2023/06/15 01:31:03;;;;;;;1.50;1.00;;;18.10;86.30;;;;;;4970130;28;20503;-84
2023/06/15 01:33:31;;;;;;;1.43;1.00;;;18.10;86.00;;;;;;4985761;28;20465;-83
2023/06/15 01:35:59;;;;;;;1.43;0.90;;;18.00;86.50;;;;;;4971486;28;20477;-84
2023/06/15 01:38:30;;;;;;;1.40;0.90;;;18.00;86.70;;;;;;4997054;28;20504;-83
2023/06/15 01:41:00;;;;;;;1.43;0.93;;;17.90;87.10;;;;;;4968836;28;20480;-84
2023/06/15 01:43:32;;;;;;;1.40;0.90;;;17.90;87.20;;;;;;4989376;28;20610;-83
2023/06/15 01:46:00;;;;;;;1.43;0.90;;;17.80;86.30;;;;;;4968937;28;20522;-83
2023/06/15 01:48:27;;;;;;;1.40;0.90;;;17.80;87.10;;;;;;4988225;28;20506;-84
2023/06/15 01:50:56;;;;;;;1.43;0.90;;;17.80;86.20;;;;;;4966088;28;20478;-84
2023/06/15 01:53:23;;;;;;;1.43;0.97;;;17.90;86.00;;;;;;4986890;28;20480;-84
2023/06/15 01:55:51;;;;;;;1.43;0.90;;;17.90;85.80;;;;;;4968009;28;21028;-84
2023/06/15 01:58:18;;;;;;;1.47;1.00;;;17.90;85.60;;;;;;5003606;28;20456;-83
2023/06/15 02:00:47;;;;;;;1.80;1.37;;;17.90;85.80;;;;;;4972440;28;20520;-83
2023/06/15 02:03:14;;;;;;;1.40;0.90;;;17.90;85.50;;;;;;4965080;28;20671;-83
2023/06/15 02:05:41;;;;;;;1.43;0.90;;;17.90;85.40;;;;;;4977860;28;20826;-84
2023/06/15 02:08:08;;;;;;;1.47;0.90;;;17.80;86.00;;;;;;4991935;28;20493;-83
2023/06/15 02:10:35;;;;;;;1.50;1.10;;;17.80;85.80;;;;;;4976945;28;20462;-83
2023/06/15 02:13:01;;;;;;;1.50;0.90;;;17.70;86.30;;;;;;4980626;28;20485;-82
2023/06/15 02:15:28;;;;;;;1.50;1.00;;;17.70;86.30;;;;;;4974610;28;20485;-83
2023/06/15 02:18:00;;;;;;;1.43;1.00;;;17.60;86.30;;;;;;4996952;28;20480;-83
2023/06/15 02:20:28;;;;;;;1.43;0.90;;;17.60;86.90;;;;;;4980028;28;20462;-83
2023/06/15 02:22:57;;;;;;;1.47;0.90;;;17.60;87.00;;;;;;4992802;28;20485;-83
2023/06/15 02:25:23;;;;;;;1.47;0.90;;;17.50;87.30;;;;;;4980748;28;20513;-83
2023/06/15 02:27:50;;;;;;;1.43;1.00;;;17.50;86.90;;;;;;4996713;28;20491;-84
2023/06/15 02:30:17;;;;;;;1.50;1.00;;;17.40;87.40;;;;;;4979158;28;20462;-83
2023/06/15 02:32:45;;;;;;;1.43;1.00;;;17.40;87.40;;;;;;4994879;28;20476;-83
2023/06/15 02:35:13;;;;;;;1.40;0.90;;;17.30;87.50;;;;;;4976544;28;20834;-83
2023/06/15 02:37:41;;;;;;;1.43;0.90;;;17.30;87.70;;;;;;4982762;28;20501;-83
2023/06/15 02:40:10;;;;;;;1.50;1.00;;;17.30;88.10;;;;;;4979786;28;20876;-83
2023/06/15 02:42:38;;;;;;;1.50;1.00;;;17.20;88.00;;;;;;4996058;28;20507;-83
2023/06/15 02:45:06;;;;;;;1.40;0.90;;;17.20;88.40;;;;;;4976405;28;20497;-83
2023/06/15 02:47:34;;;;;;;1.43;0.90;;;17.20;89.30;;;;;;4990092;28;20617;-83
2023/06/15 02:50:00;;;;;;;1.40;0.90;;;17.10;89.20;;;;;;4980872;28;20994;-83
2023/06/15 02:52:30;;;;;;;1.47;0.90;;;17.10;89.30;;;;;;4984231;28;20958;-83
2023/06/15 02:54:57;;;;;;;1.50;0.90;;;17.10;89.10;;;;;;4978427;28;20537;-83
2023/06/15 02:57:24;;;;;;;1.43;0.90;;;17.00;89.70;;;;;;4989124;28;20495;-83
2023/06/15 02:59:51;;;;;;;1.40;0.90;;;17.00;89.00;;;;;;4983684;28;20469;-83
2023/06/15 03:02:20;;;;;;;1.43;1.00;;;17.00;89.60;;;;;;4987172;28;20486;-83
2023/06/15 03:04:50;;;;;;;1.40;0.90;;;17.00;89.30;;;;;;4982027;28;20698;-83
2023/06/15 03:07:20;;;;;;;1.50;0.90;;;16.90;90.00;;;;;;4988991;28;20849;-83
2023/06/15 03:09:48;;;;;;;1.50;0.90;;;16.90;89.60;;;;;;4985372;28;20465;-83
2023/06/15 03:12:15;;;;;;;1.40;0.90;;;16.90;90.10;;;;;;4986956;28;20472;-83
2023/06/15 03:14:44;;;;;;;1.47;0.90;;;16.80;90.80;;;;;;4982980;28;20454;-83
2023/06/15 03:17:12;;;;;;;1.40;0.90;;;16.80;90.40;;;;;;4988559;28;20483;-83
2023/06/15 03:19:39;;;;;;;1.47;0.90;;;16.80;91.20;;;;;;4988530;28;20460;-84
2023/06/15 03:22:07;;;;;;;1.50;1.00;;;16.80;91.60;;;;;;4985678;28;20484;-83
2023/06/15 03:24:34;;;;;;;1.47;0.90;;;16.70;91.40;;;;;;4983636;28;20846;-83
2023/06/15 03:27:04;;;;;;;1.50;0.93;;;16.70;91.60;;;;;;4981189;28;20492;-82
2023/06/15 03:29:31;;;;;;;1.43;0.90;;;16.70;92.50;;;;;;4984756;28;20462;-83
2023/06/15 03:31:58;;;;;;;1.47;0.90;;;16.70;92.40;;;;;;4975428;28;20485;-83
2023/06/15 03:34:25;;;;;;;1.47;0.90;;;16.70;93.00;;;;;;4991309;28;20458;-83
2023/06/15 03:36:52;;;;;;;1.43;0.90;;;16.70;93.30;;;;;;4978831;28;20790;-83
2023/06/15 03:39:19;;;;;;;1.43;0.90;;;16.70;93.50;;;;;;4985318;28;21026;-83
2023/06/15 03:41:46;;;;;;;1.47;1.00;;;16.70;93.60;;;;;;4973433;28;20473;-83
2023/06/15 03:44:14;;;;;;;1.50;1.00;;;16.70;93.90;;;;;;4988581;28;20541;-83
2023/06/15 03:46:42;;;;;;;1.40;1.00;;;16.60;94.10;;;;;;4974950;28;20536;-83
2023/06/15 03:49:10;;;;;;;1.47;0.90;;;16.70;94.00;;;;;;4989109;28;20462;-83
2023/06/15 03:51:37;;;;;;;1.50;1.00;;;16.70;94.10;;;;;;4979362;28;20502;-82
2023/06/15 03:54:04;;;;;;;1.47;0.93;;;16.60;94.30;;;;;;4984892;28;20464;-83
2023/06/15 03:56:31;;;;;;;1.40;0.93;;;16.70;95.00;;;;;;4975646;28;20496;-83
2023/06/15 03:58:58;;;;;;;1.40;1.00;;;16.70;95.10;;;;;;4989185;28;20473;-83
2023/06/15 04:01:26;;;;;;;1.50;1.00;;;16.70;95.40;;;;;;4969269;28;20500;-83
2023/06/15 04:03:53;;;;;;;1.50;1.00;;;16.70;95.70;;;;;;4995553;28;20474;-83
2023/06/15 04:06:21;;;;;;;1.47;1.00;;;16.70;96.30;;;;;;4973088;28;20502;-84
2023/06/15 04:08:48;;;;;;;1.40;1.00;;;16.70;96.50;;;;;;4997408;28;20481;-83
2023/06/15 04:11:15;;;;;;;1.47;0.90;;;16.80;97.60;;;;;;4972869;28;20548;-83
2023/06/15 04:13:42;;;;;;;1.43;1.00;;;16.80;98.20;;;;;;4992782;28;20528;-83
2023/06/15 04:16:10;;;;;;;1.47;1.00;;;16.80;98.20;;;;;;4968241;28;20488;-82
2023/06/15 04:18:40;;;;;;;1.47;0.97;;;16.90;98.20;;;;;;4993524;28;20462;-82
2023/06/15 04:21:07;;;;;;;1.47;0.90;;;16.90;97.90;;;;;;4963434;28;20486;-82
2023/06/15 04:23:34;;;;;;;1.50;0.90;;;17.00;97.30;;;;;;5001611;28;20466;-81
2023/06/15 04:26:03;;;;;;;1.40;0.97;;;17.00;98.00;;;;;;4971400;28;20493;-82
2023/06/15 04:28:30;;;;;;;1.40;0.90;;;17.10;97.60;;;;;;4996800;28;20541;-82
2023/06/15 04:31:08;;;;;;;1.40;0.90;;;17.10;97.80;;;;;;4972612;28;20482;-82
2023/06/15 04:33:36;;;;;;;1.43;0.90;;;17.20;97.10;;;;;;4999236;28;20466;-82
2023/06/15 04:36:04;;;;;;;1.50;1.00;;;17.20;97.00;;;;;;4972887;28;20549;-82
2023/06/15 04:38:31;;;;;;;1.40;0.90;;;17.30;96.80;;;;;;4993100;28;20462;-82
2023/06/15 04:40:59;;;;;;;1.50;1.00;;;17.40;97.10;;;;;;4971001;28;20474;-81
2023/06/15 04:43:26;;;;;;;1.43;1.00;;;17.50;98.20;;;;;;5002030;28;20465;-82
2023/06/15 04:45:53;;;;;;;1.43;0.90;;;17.60;98.20;;;;;;4971873;28;20504;-82
2023/06/15 04:48:19;;;;;;;1.47;0.90;;;17.80;98.20;;;;;;5000473;28;20477;-83
2023/06/15 04:50:48;;;;;;;1.40;0.90;;;18.00;98.20;;;;;;4977614;28;20469;-81
2023/06/15 04:53:17;;;;;;;1.47;0.90;;;18.10;97.60;;;;;;5002520;28;20530;-83
2023/06/15 04:55:44;;;;;;;1.50;0.90;;;18.30;96.90;;;;;;4980074;28;21055;-81
2023/06/15 04:58:12;;;;;;;1.50;1.00;;;18.50;96.10;;;;;;4987458;28;20485;-81
2023/06/15 05:00:38;;;;;;;1.50;0.90;;;18.60;96.20;;;;;;4979926;28;20481;-82
2023/06/15 05:03:05;;;;;;;1.47;0.93;;;18.80;95.00;;;;;;4980720;28;20480;-81
2023/06/15 05:05:32;;;;;;;1.50;1.00;;;19.00;93.90;;;;;;4978069;28;20488;-81
2023/06/15 05:07:59;;;;;;;1.47;0.90;;;19.30;92.30;;;;;;4982907;28;20576;-80
2023/06/15 05:10:27;;;;;;;1.43;0.90;;;19.50;91.00;;;;;;4984675;28;20540;-81
2023/06/15 05:12:54;;;;;;;1.47;0.90;;;19.70;90.60;;;;;;4981646;28;20482;-81
2023/06/15 05:15:21;;;;;;;1.43;0.90;;;19.80;89.80;;;;;;4982240;28;21024;-82
2023/06/15 05:17:48;;;;;;;1.47;0.90;;;20.00;88.60;;;;;;4983895;28;20476;-81
2023/06/15 05:20:15;;;;;;;1.40;0.90;;;20.20;89.00;;;;;;4980511;28;20473;-81
2023/06/15 05:22:42;;;;;;;1.83;1.50;;;20.30;88.00;;;;;;4987118;28;20480;-81
2023/06/15 05:25:09;;;;;;;1.50;0.90;;;20.50;88.30;;;;;;4981232;28;20484;-81
2023/06/15 05:27:37;;;;;;;1.50;0.90;;;20.70;87.20;;;;;;4979133;28;20493;-81
2023/06/15 05:30:07;;;;;;;1.50;0.90;;;20.80;87.20;;;;;;4978416;28;20470;-80
2023/06/15 05:32:37;;;;;;;1.47;0.90;;;20.90;86.10;;;;;;4981906;28;20810;-81
2023/06/15 05:35:05;;;;;;;1.43;0.90;;;21.10;85.40;;;;;;4979282;28;20573;-81
2023/06/15 05:37:33;;;;;;;1.47;0.90;;;21.20;84.20;;;;;;4981653;28;20703;-81
2023/06/15 05:40:00;;;;;;;1.50;0.90;;;21.30;84.20;;;;;;4983159;28;20469;-81
2023/06/15 05:42:27;;;;;;;1.50;0.90;;;21.50;83.50;;;;;;4982395;28;20571;-82
2023/06/15 05:44:55;;;;;;;1.47;0.90;;;21.50;81.90;;;;;;4982802;28;20473;-81
2023/06/15 05:47:22;;;;;;;1.50;0.90;;;21.60;81.80;;;;;;4989765;28;20555;-83
2023/06/15 05:49:49;;;;;;;1.50;0.90;;;21.60;82.90;;;;;;4986113;28;20465;-83
2023/06/15 05:52:17;;;;;;;1.50;0.90;;;21.70;83.50;;;;;;4989911;28;20477;-83
2023/06/15 05:54:45;;;;;;;1.47;0.90;;;21.70;83.90;;;;;;4983585;28;20460;-83
2023/06/15 05:57:12;;;;;;;1.50;0.90;;;21.70;84.40;;;;;;5023969;22;20482;-79
2023/06/15 05:59:39;;;;;;;1.43;0.90;;;21.80;83.90;;;;;;5042990;28;20546;-80
2023/06/15 06:02:10;;;;;;;1.50;0.90;;;21.80;83.90;;;;;;5021683;28;20484;-79
2023/06/15 06:04:36;;;;;;;1.50;0.90;;;21.90;83.70;;;;;;5039589;28;20459;-80
2023/06/15 06:07:05;;;;;;;1.40;0.87;;;22.10;84.80;;;;;;5021384;28;20472;-80
2023/06/15 06:09:33;;;;;;;1.50;0.90;;;22.20;83.00;;;;;;5034811;28;20473;-79
2023/06/15 06:12:00;;;;;;;1.50;0.90;;;22.40;82.30;;;;;;5026083;28;20476;-80
2023/06/15 06:14:27;;;;;;;1.50;0.90;;;22.50;82.90;;;;;;5041024;28;20529;-80
2023/06/15 06:16:54;;;;;;;1.50;0.90;;;22.80;79.80;;;;;;5021154;28;20480;-80
2023/06/15 06:19:22;;;;;;;1.43;0.90;;;23.00;78.70;;;;;;5037213;28;20506;-80
2023/06/15 06:21:49;;;;;;;1.47;0.90;;;23.20;79.00;;;;;;5024847;28;20542;-79
2023/06/15 06:28:17;;;;;;;1.47;0.90;;;23.40;78.70;;;;;;4933761;28;20467;-77
2023/06/15 06:31:07;;;;;;;1.43;0.90;;;23.60;77.80;;;;;;5034374;28;20513;-77
2023/06/15 06:34:05;;;;;;;1.43;0.87;;;23.80;77.70;;;;;;5005107;28;20534;-80
2023/06/15 06:36:35;;;;;;;1.47;0.90;;;24.00;77.40;;;;;;5007488;28;20487;-77
2023/06/15 06:39:02;;;;;;;1.43;0.90;;;24.10;74.90;;;;;;5023190;28;20495;-79
2023/06/15 06:41:29;;;;;;;1.50;0.90;;;24.30;76.10;;;;;;5015350;28;20484;-78
2023/06/15 06:43:56;;;;;;;1.50;0.90;;;24.30;74.50;;;;;;5026374;28;20529;-78
2023/06/15 06:46:23;;;;;;;1.50;0.90;;;24.50;73.50;;;;;;5027315;28;20548;-80
2023/06/15 06:48:50;;;;;;;1.47;0.90;;;24.70;74.70;;;;;;5026831;28;20485;-79
2023/06/15 06:51:17;;;;;;;1.40;0.90;;;24.80;74.80;;;;;;5026908;28;20476;-80
2023/06/15 06:53:45;;;;;;;1.47;0.90;;;25.00;71.80;;;;;;5025002;28;20462;-78
2023/06/15 06:56:12;;;;;;;1.50;0.90;;;25.10;71.10;;;;;;5029202;28;20486;-80
2023/06/15 06:58:39;;;;;;;1.50;0.90;;;25.30;70.30;;;;;;5026138;28;20848;-81
2023/06/15 07:01:05;;;;;;;1.47;0.90;;;25.40;70.80;;;;;;5030931;28;20497;-80
2023/06/15 07:03:32;;;;;;;1.50;0.90;;;25.50;69.70;;;;;;5024608;28;20463;-80
2023/06/15 07:06:00;;;;;;;1.50;1.00;;;25.50;69.30;;;;;;5031838;28;20463;-80
2023/06/15 07:08:26;;;;;;;1.50;0.90;;;25.70;69.40;;;;;;5025132;28;20463;-80
2023/06/15 07:10:55;;;;;;;1.50;0.90;;;25.90;70.30;;;;;;5029686;28;20463;-78
2023/06/15 07:13:22;;;;;;;1.50;0.90;;;25.90;67.50;;;;;;5036324;28;20524;-79
2023/06/15 07:15:54;;;;;;;1.50;0.80;;;25.90;69.80;;;;;;5033562;28;20454;-79
2023/06/15 07:18:21;;;;;;;1.60;1.20;;;26.10;67.90;;;;;;5022852;28;20530;-79
2023/06/15 07:20:53;;;;;;;1.47;0.87;;;26.30;67.50;;;;;;5033329;28;20462;-79
2023/06/15 07:23:32;;;;;;;1.50;1.00;;;26.40;68.10;;;;;;5026206;28;20467;-78
2023/06/15 07:26:00;;;;;;;1.43;0.80;;;26.40;67.30;;;;;;5030686;28;20569;-81
2023/06/15 07:28:27;;;;;;;1.50;0.80;;;26.40;67.50;;;;;;5022092;28;20464;-79
2023/06/15 07:30:54;;;;;;;1.50;0.80;;;26.40;67.50;;;;;;5029147;28;20534;-80
2023/06/15 07:33:21;;;;;;;1.47;0.80;;;26.50;67.20;;;;;;5021865;28;20486;-81
2023/06/15 07:35:48;;;;;;;1.47;0.90;;;26.70;67.40;;;;;;5022280;28;20462;-79
2023/06/15 07:38:15;;;;;;;1.50;0.90;;;26.80;67.20;;;;;;5025828;28;20469;-80
2023/06/15 07:40:42;;;;;;;1.47;0.90;;;27.00;66.80;;;;;;5038411;28;20460;-79
2023/06/15 07:43:10;;;;;;;1.50;0.87;;;27.00;66.50;;;;;;5020324;28;20483;-81
2023/06/15 07:45:37;;;;;;;1.47;0.80;;;27.10;66.40;;;;;;5042707;28;20462;-80
2023/06/15 07:48:04;;;;;;;1.47;0.80;;;27.30;65.80;;;;;;5016156;28;20511;-79
2023/06/15 07:50:31;;;;;;;1.47;0.80;;;27.40;66.20;;;;;;5044211;28;20454;-79
2023/06/15 07:52:58;;;;;;;1.50;0.90;;;27.40;65.30;;;;;;5015292;28;20492;-79
2023/06/15 07:55:24;;;;;;;1.43;0.90;;;27.60;65.20;;;;;;5040097;28;20470;-81
2023/06/15 07:57:51;;;;;;;1.43;0.80;;;27.70;64.50;;;;;;5008634;28;20564;-79
2023/06/15 08:00:21;;;;;;;1.47;0.80;;;27.80;63.50;;;;;;5041459;28;20503;-79
2023/06/15 08:02:48;;;;;;;1.47;0.80;;;27.90;63.40;;;;;;5006586;28;20480;-80
2023/06/15 08:05:17;;;;;;;1.43;0.80;;;27.90;62.90;;;;;;5039254;28;20466;-81
2023/06/15 08:07:44;;;;;;;1.43;0.80;;;27.80;62.50;;;;;;5017582;28;20503;-81
2023/06/15 08:10:12;;;;;;;1.47;0.90;;;28.00;62.80;;;;;;5040598;28;20522;-81
2023/06/15 08:12:39;;;;;;;1.40;0.80;;;27.90;62.30;;;;;;5016724;28;20485;-82
2023/06/15 08:15:07;;;;;;;1.43;0.80;;;27.90;62.00;;;;;;5035296;28;20509;-79
2023/06/15 08:17:37;;;;;;;1.90;1.33;;;27.90;62.30;;;;;;5011758;28;20563;-80
2023/06/15 08:20:07;;;;;;;1.50;0.90;;;28.10;61.60;;;;;;5036840;28;20545;-80
2023/06/15 08:22:33;;;;;;;1.47;0.80;;;28.30;61.50;;;;;;5014652;28;20550;-81
2023/06/15 08:25:16;;;;;;;2.30;1.40;;;28.30;61.80;;;;;;5042480;28;20844;-81
2023/06/15 08:27:43;;;;;;;1.40;0.80;;;28.60;61.80;;;;;;5026621;28;20522;-82
2023/06/15 08:30:11;;;;;;;1.50;0.80;;;28.80;61.10;;;;;;5038095;28;20806;-82
2023/06/15 08:32:39;;;;;;;1.50;0.80;;;28.90;59.70;;;;;;5018655;28;20476;-80
2023/06/15 08:35:07;;;;;;;1.40;0.80;;;28.80;60.40;;;;;;5035550;28;20532;-80
2023/06/15 08:37:40;;;;;;;1.43;0.80;;;28.80;59.80;;;;;;5027186;28;20911;-80
2023/06/15 08:40:08;;;;;;;1.47;0.80;;;28.90;59.50;;;;;;5036789;28;20470;-79
2023/06/15 08:42:35;;;;;;;1.47;0.80;;;28.90;59.60;;;;;;5016812;28;20495;-81
2023/06/15 08:45:07;;;;;;;1.50;0.90;;;28.80;59.70;;;;;;5036745;28;20911;-79
2023/06/15 08:47:34;;;;;;;1.43;0.80;;;28.70;59.70;;;;;;5017472;28;20534;-81
2023/06/15 08:50:04;;;;;;;1.83;1.60;;;28.80;60.00;;;;;;5043247;28;20520;-81
2023/06/15 08:52:34;;;;;;;1.47;0.80;;;29.10;60.20;;;;;;5015058;28;20483;-81
2023/06/15 08:55:02;;;;;;;1.57;1.00;;;29.30;60.90;;;;;;5038474;28;20480;-80
2023/06/15 08:57:31;;;;;;;1.43;0.80;;;29.40;59.60;;;;;;5017422;28;20484;-80
2023/06/15 08:59:58;;;;;;;1.50;0.80;;;29.50;59.40;;;;;;5039602;28;20454;-80
2023/06/15 09:02:26;;;;;;;1.43;0.80;;;29.60;60.30;;;;;;5018507;28;20487;-79
2023/06/15 09:04:53;;;;;;;1.43;0.80;;;29.70;58.70;;;;;;5040952;28;20463;-80
2023/06/15 09:07:22;;;;;;;1.47;0.80;;;29.70;58.90;;;;;;5015928;28;20559;-79
2023/06/15 09:10:11;;;;;;;1.47;0.80;;;30.00;57.20;;;;;;5037769;28;21112;-79
2023/06/15 09:12:42;;;;;;;1.43;0.80;;;30.20;58.50;;;;;;5008008;28;20714;-80
2023/06/15 09:15:12;;;;;;;1.40;0.80;;;30.40;58.80;;;;;;5030534;28;20242;-79
2023/06/15 09:17:39;;;;;;;1.50;0.80;;;30.40;58.10;;;;;;5025843;28;20422;-80
2023/06/15 09:20:08;;;;;;;1.43;0.80;;;30.30;58.30;;;;;;5028586;28;20239;-81
2023/06/15 09:22:43;;;;;;;1.43;0.80;;;30.20;56.80;;;;;;5023164;28;20234;-79
2023/06/15 09:25:13;;;;;;;1.50;0.90;;;30.00;58.40;;;;;;5031199;28;20210;-78
2023/06/15 09:27:40;;;;;;;1.47;0.93;;;30.00;57.40;;;;;;5021944;28;20232;-80
2023/06/15 09:30:08;;;;;;;1.47;0.80;;;30.20;58.50;;;;;;5034463;28;20197;-79
2023/06/15 09:32:34;;;;;;;1.50;0.80;;;30.50;58.20;;;;;;5020936;28;20687;-81
2023/06/15 09:35:03;;;;;;;1.43;0.80;;;30.70;57.50;;;;;;5031578;28;20210;-78
2023/06/15 09:37:31;;;;;;;1.43;0.87;;;30.90;56.90;;;;;;5011117;28;20256;-79
2023/06/15 09:39:59;;;;;;;1.43;0.80;;;30.80;56.70;;;;;;5032221;28;20228;-80
2023/06/15 09:42:29;;;;;;;1.40;0.80;;;30.80;56.30;;;;;;5012209;28;20229;-80
2023/06/15 09:45:00;;;;;;;1.50;0.90;;;30.70;57.40;;;;;;5034793;28;20234;-79
2023/06/15 09:47:33;;;;;;;1.43;0.80;;;30.40;57.00;;;;;;5010111;28;20300;-79
2023/06/15 09:50:09;;;;;;;1.47;0.90;;;30.00;57.70;;;;;;5036474;28;20203;-79
2023/06/15 09:52:41;;;;;;;1.43;0.80;;;29.60;57.90;;;;;;5006716;28;20451;-79
2023/06/15 09:55:11;;;;;;;1.50;0.90;;;29.10;58.30;;;;;;5034040;28;20231;-79
2023/06/15 09:57:38;;;;;;;1.43;0.80;;;28.70;59.10;;;;;;5003601;28;20495;-79
2023/06/15 10:00:08;;;;;;;1.43;0.80;;;28.70;60.50;;;;;;5030061;28;20451;-79
2023/06/15 10:02:38;;;;;;;1.40;0.80;;;29.00;59.90;;;;;;5008954;28;20578;-79
2023/06/15 10:05:12;;;;;;;1.40;0.80;;;29.50;59.20;;;;;;5034070;28;20461;-80
2023/06/15 10:07:41;;;;;;;1.50;0.80;;;30.00;58.70;;;;;;5009311;28;20479;-79
2023/06/15 10:10:11;;;;;;;1.40;0.80;;;30.40;56.80;;;;;;5033004;28;20857;-79
2023/06/15 10:12:42;;;;;;;1.40;0.80;;;30.80;56.20;;;;;;5025893;28;20303;-78
2023/06/15 10:15:12;;;;;;;1.43;0.80;;;31.10;56.10;;;;;;5034627;28;20662;-79
2023/06/15 10:17:42;;;;;;;1.47;0.80;;;31.50;54.30;;;;;;5018400;28;20275;-78
2023/06/15 10:20:18;;;;;;;1.47;0.80;;;31.70;55.50;;;;;;5034577;28;20216;-79
2023/06/15 10:22:50;;;;;;;1.40;0.80;;;31.80;54.00;;;;;;5011804;28;20274;-78
2023/06/15 10:25:20;;;;;;;1.50;0.90;;;31.80;54.10;;;;;;5036977;28;20204;-78
2023/06/15 10:27:48;;;;;;;1.40;0.80;;;32.00;53.70;;;;;;5007794;28;20228;-81
2023/06/15 10:30:27;;;;;;;1.50;1.00;;;31.70;53.80;;;;;;5031166;28;20211;-78
2023/06/15 10:33:00;;;;;;;1.47;0.80;;;31.20;54.20;;;;;;5007141;28;20304;-79
2023/06/15 10:35:32;;;;;;;1.50;0.80;;;31.00;54.10;;;;;;5037078;28;20260;-79
2023/06/15 10:38:11;;;;;;;1.40;0.80;;;31.00;54.80;;;;;;5014165;28;20233;-79
2023/06/15 10:40:45;;;;;;;1.40;0.80;;;31.10;55.50;;;;;;5035783;28;20219;-79
2023/06/15 10:43:18;;;;;;;1.43;0.80;;;31.50;54.80;;;;;;5008544;28;20216;-79
2023/06/15 10:45:45;;;;;;;1.40;0.80;;;31.70;53.60;;;;;;5035646;28;20460;-79
2023/06/15 10:48:22;;;;;;;1.40;0.80;;;32.00;53.50;;;;;;5005309;28;20223;-79
2023/06/15 10:50:51;;;;;;;1.40;0.80;;;32.40;54.00;;;;;;5019472;28;20366;-79
2023/06/15 10:53:28;;;;;;;1.40;0.80;;;32.70;51.80;;;;;;5030474;28;20200;-78
2023/06/15 10:56:00;;;;;;;1.43;0.80;;;32.80;51.30;;;;;;5023275;28;20204;-77
2023/06/15 10:58:29;;;;;;;1.40;0.80;;;32.90;50.00;;;;;;5015620;28;20227;-77
2023/06/15 11:01:20;;;;;;;1.40;0.80;;;32.90;52.00;;;;;;5016845;28;20265;-78
2023/06/15 11:03:47;;;;;;;1.40;0.80;;;33.20;49.30;;;;;;5008955;28;20208;-77
2023/06/15 11:06:18;;;;;;;1.40;0.80;;;33.40;51.20;;;;;;5017022;28;20237;-79
2023/06/15 11:08:49;;;;;;;1.40;0.80;;;33.40;49.40;;;;;;5015069;28;20614;-79
2023/06/15 11:11:20;;;;;;;1.40;0.80;;;33.00;49.30;;;;;;5020110;28;20397;-81
2023/06/15 11:13:59;;;;;;;1.40;0.80;;;32.70;50.20;;;;;;5024482;28;20511;-80
2023/06/15 11:16:28;;;;;;;1.40;0.80;;;32.50;49.30;;;;;;5018623;28;20254;-78
2023/06/15 11:18:59;;;;;;;1.50;1.00;;;32.20;50.80;;;;;;5023488;28;20255;-79
2023/06/15 11:21:28;;;;;;;1.40;0.80;;;32.50;50.60;;;;;;5021597;28;20243;-79
2023/06/15 11:24:05;;;;;;;1.40;0.80;;;32.60;49.20;;;;;;5020270;28;20246;-81
2023/06/15 11:26:48;;;;;;;1.40;1.00;;;32.70;49.60;;;;;;5024065;28;20318;-79
2023/06/15 11:29:22;;;;;;;1.40;0.80;;;32.40;49.10;;;;;;5028151;28;20263;-78
2023/06/15 11:31:49;;;;;;;1.38;0.80;;;32.30;49.20;;;;;;5021681;28;20255;-77
2023/06/15 11:34:25;;;;;;;1.40;0.80;;;32.30;49.60;;;;;;5028002;28;20232;-81
2023/06/15 11:36:57;;;;;;;1.40;0.80;;;32.50;49.00;;;;;;5010903;28;20231;-77
2023/06/15 11:39:27;;;;;;;1.40;0.80;;;32.60;48.80;;;;;;5027368;28;20228;-80
2023/06/15 11:41:57;;;;;;;1.40;0.80;;;32.90;49.40;;;;;;5016110;28;20244;-78
2023/06/15 11:44:26;;;;;;;1.40;0.80;;;33.00;48.20;;;;;;5027981;28;20208;-79
2023/06/15 11:47:03;;;;;;;1.40;0.80;;;33.10;49.00;;;;;;5018083;28;20327;-79
2023/06/15 11:49:34;;;;;;;1.40;0.80;;;33.00;48.00;;;;;;5032851;28;20295;-79
2023/06/15 11:52:01;;;;;;;1.40;0.80;;;33.10;49.00;;;;;;5005712;28;20241;-78
2023/06/15 11:54:28;;;;;;;1.40;0.80;;;33.40;48.10;;;;;;5020906;28;20219;-78
2023/06/15 11:56:57;;;;;;;1.40;0.80;;;33.70;49.20;;;;;;5005921;28;20229;-78
2023/06/15 11:59:26;;;;;;;1.40;0.80;;;33.90;50.10;;;;;;5016715;28;20624;-79
2023/06/15 12:01:58;;;;;;;1.40;0.80;;;34.00;48.40;;;;;;5011478;28;20640;-79
2023/06/15 12:04:30;;;;;;;1.40;0.80;;;33.90;48.30;;;;;;5022911;28;20203;-80
2023/06/15 12:07:00;;;;;;;1.40;0.80;;;33.90;47.60;;;;;;5005425;28;20311;-80
2023/06/15 12:09:27;;;;;;;1.40;0.80;;;33.70;46.90;;;;;;5018181;28;20200;-79
2023/06/15 12:11:56;;;;;;;1.50;1.20;;;33.70;47.20;;;;;;5011340;28;20242;-77
2023/06/15 12:14:26;;;;;;;1.60;1.23;;;33.70;48.10;;;;;;5022181;28;20745;-79
2023/06/15 12:16:54;;;;;;;1.40;0.90;;;33.50;46.60;;;;;;5010355;28;20235;-78
2023/06/15 12:19:21;;;;;;;1.40;0.80;;;33.70;47.20;;;;;;5017828;28;20322;-77
2023/06/15 12:21:48;;;;;;;1.40;0.80;;;33.70;46.00;;;;;;5010775;28;20675;-78
2023/06/15 12:24:16;;;;;;;1.40;0.98;;;33.80;47.00;;;;;;5018396;28;20681;-79
2023/06/15 12:26:49;;;;;;;1.40;0.80;;;33.80;45.70;;;;;;5013248;28;20235;-79
2023/06/15 12:29:19;;;;;;;1.40;0.80;;;33.90;47.20;;;;;;5019443;28;20299;-80
2023/06/15 12:31:48;;;;;;;1.40;0.80;;;33.70;45.90;;;;;;5005817;28;20220;-78
2023/06/15 12:34:15;;;;;;;1.40;0.80;;;33.80;46.10;;;;;;5015492;28;20385;-78
2023/06/15 12:36:42;;;;;;;1.38;0.80;;;33.80;45.40;;;;;;5011096;28;21264;-78
2023/06/15 12:39:10;;;;;;;1.40;0.80;;;34.00;46.40;;;;;;5022988;28;20335;-78
2023/06/15 12:41:42;;;;;;;1.40;0.80;;;33.90;45.80;;;;;;5015278;28;20251;-77
2023/06/15 12:44:09;;;;;;;1.40;0.80;;;33.70;45.70;;;;;;5019226;28;20287;-79
2023/06/15 12:46:39;;;;;;;1.55;1.10;;;33.70;46.10;;;;;;5009032;28;20235;-78
2023/06/15 12:49:06;;;;;;;1.40;0.90;;;33.90;46.20;;;;;;5015059;28;20211;-77
2023/06/15 12:51:33;;;;;;;1.40;0.80;;;33.90;46.20;;;;;;5009780;28;20263;-80
2023/06/15 12:54:01;;;;;;;1.40;0.80;;;33.80;46.20;;;;;;5017004;28;20224;-79
2023/06/15 12:56:28;;;;;;;1.40;0.80;;;33.80;47.80;;;;;;5010559;28;20264;-79
2023/06/15 12:58:55;;;;;;;1.40;0.80;;;34.00;47.30;;;;;;5020241;28;20286;-78
2023/06/15 13:01:22;;;;;;;1.40;0.80;;;34.40;47.00;;;;;;5015790;28;20228;-81